Time,TemperatureF,DewpointF,PressureIn,WindDirection,WindDirectionDegrees,WindSpeedMPH,WindSpeedGustMPH,Humidity,HourlyPrecipIn,Conditions,Clouds,dailyrainin,SolarRadiationWatts/m^2,SoftwareType,DateUTC
2013-02-16 00:21:00,51.0,11.0,-100.00,East,82,16.0,25.0,20,0.00,,,0.00,0.000000,,2013-02-16 08:21:00,
2013-02-16 00:31:00,51.0,11.0,-100.00,East,82,16.0,25.0,20,0.00,,,0.00,0.000000,,2013-02-16 08:31:00,
2013-02-16 00:41:00,51.0,11.0,-100.00,East,82,16.0,25.0,20,0.00,,,0.00,0.000000,,2013-02-16 08:41:00,
2013-02-16 00:52:00,51.0,11.0,-100.00,East,82,16.0,25.0,20,0.00,,,0.00,0.000000,,2013-02-16 08:52:00,
2013-02-16 01:21:00,50.0,11.0,-100.00,East,81,17.0,26.0,20,0.00,,,0.00,0.000000,,2013-02-16 09:21:00,
2013-02-16 01:31:00,50.0,11.0,-100.00,East,81,17.0,26.0,20,0.00,,,0.00,0.000000,,2013-02-16 09:31:00,
2013-02-16 01:42:00,50.0,11.0,-100.00,East,81,17.0,26.0,20,0.00,,,0.00,0.000000,,2013-02-16 09:42:00,
2013-02-16 01:51:00,50.0,11.0,-100.00,East,81,17.0,26.0,20,0.00,,,0.00,0.000000,,2013-02-16 09:51:00,
2013-02-16 02:21:00,50.0,9.0,-100.00,East,82,15.0,24.0,19,0.00,,,0.00,0.000000,,2013-02-16 10:21:00,
2013-02-16 02:31:00,50.0,9.0,-100.00,East,82,15.0,24.0,19,0.00,,,0.00,0.000000,,2013-02-16 10:31:00,
2013-02-16 02:41:00,50.0,9.0,-100.00,East,82,15.0,24.0,19,0.00,,,0.00,0.000000,,2013-02-16 10:41:00,
2013-02-16 02:51:00,50.0,9.0,-100.00,East,82,15.0,24.0,19,0.00,,,0.00,0.000000,,2013-02-16 10:51:00,
2013-02-16 03:22:00,51.0,9.0,-100.00,East,83,14.0,25.0,18,0.00,,,0.00,0.000000,,2013-02-16 11:22:00,
2013-02-16 03:31:00,51.0,9.0,-100.00,East,83,14.0,25.0,18,0.00,,,0.00,0.000000,,2013-02-16 11:31:00,
2013-02-16 03:42:00,51.0,9.0,-100.00,East,83,14.0,25.0,18,0.00,,,0.00,0.000000,,2013-02-16 11:42:00,
2013-02-16 03:52:00,51.0,9.0,-100.00,East,83,14.0,25.0,18,0.00,,,0.00,0.000000,,2013-02-16 11:52:00,
2013-02-16 04:22:00,49.0,10.0,-100.00,ENE,77,12.0,23.0,20,0.00,,,0.00,0.000000,,2013-02-16 12:22:00,
2013-02-16 04:32:00,49.0,10.0,-100.00,ENE,77,12.0,23.0,20,0.00,,,0.00,0.000000,,2013-02-16 12:32:00,
2013-02-16 04:42:00,49.0,10.0,-100.00,ENE,77,12.0,23.0,20,0.00,,,0.00,0.000000,,2013-02-16 12:42:00,
2013-02-16 04:52:00,49.0,10.0,-100.00,ENE,77,12.0,23.0,20,0.00,,,0.00,0.000000,,2013-02-16 12:52:00,
2013-02-16 05:21:00,49.0,10.0,-100.00,East,79,12.0,20.0,20,0.00,,,0.00,0.000000,,2013-02-16 13:21:00,
2013-02-16 05:31:00,49.0,10.0,-100.00,East,79,12.0,20.0,20,0.00,,,0.00,0.000000,,2013-02-16 13:31:00,
2013-02-16 05:41:00,49.0,10.0,-100.00,East,79,12.0,20.0,20,0.00,,,0.00,0.000000,,2013-02-16 13:41:00,
2013-02-16 05:51:00,49.0,10.0,-100.00,East,79,12.0,20.0,20,0.00,,,0.00,0.000000,,2013-02-16 13:51:00,
2013-02-16 06:21:00,49.0,10.0,-100.00,East,86,13.0,20.0,20,0.00,,,0.00,0.000000,,2013-02-16 14:21:00,
2013-02-16 06:32:00,49.0,10.0,-100.00,East,86,13.0,20.0,20,0.00,,,0.00,0.000000,,2013-02-16 14:32:00,
2013-02-16 06:41:00,49.0,10.0,-100.00,East,86,13.0,20.0,20,0.00,,,0.00,0.000000,,2013-02-16 14:41:00,
2013-02-16 06:52:00,49.0,10.0,-100.00,East,86,13.0,20.0,20,0.00,,,0.00,0.000000,,2013-02-16 14:52:00,
2013-02-16 07:21:00,49.0,11.0,-100.00,East,84,12.0,18.0,21,0.00,,,0.00,8.000000,,2013-02-16 15:21:00,
2013-02-16 07:31:00,49.0,11.0,-100.00,East,84,12.0,18.0,21,0.00,,,0.00,8.000000,,2013-02-16 15:31:00,
2013-02-16 07:41:00,49.0,11.0,-100.00,East,84,12.0,18.0,21,0.00,,,0.00,8.000000,,2013-02-16 15:41:00,
2013-02-16 07:51:00,49.0,11.0,-100.00,East,84,12.0,18.0,21,0.00,,,0.00,8.000000,,2013-02-16 15:51:00,
2013-02-16 08:21:00,51.0,12.0,-100.00,East,87,15.0,23.0,21,0.00,,,0.00,68.000000,,2013-02-16 16:21:00,
2013-02-16 08:32:00,51.0,12.0,-100.00,East,87,15.0,23.0,21,0.00,,,0.00,68.000000,,2013-02-16 16:32:00,
2013-02-16 08:41:00,51.0,12.0,-100.00,East,87,15.0,23.0,21,0.00,,,0.00,68.000000,,2013-02-16 16:41:00,
2013-02-16 08:51:00,51.0,12.0,-100.00,East,87,15.0,23.0,21,0.00,,,0.00,68.000000,,2013-02-16 16:51:00,
2013-02-16 09:21:00,54.0,14.0,-100.00,East,84,16.0,23.0,20,0.00,,,0.00,244.000000,,2013-02-16 17:21:00,
2013-02-16 09:32:00,54.0,14.0,-100.00,East,84,16.0,23.0,20,0.00,,,0.00,244.000000,,2013-02-16 17:32:00,
2013-02-16 09:41:00,54.0,14.0,-100.00,East,84,16.0,23.0,20,0.00,,,0.00,244.000000,,2013-02-16 17:41:00,
2013-02-16 09:52:00,54.0,14.0,-100.00,East,84,16.0,23.0,20,0.00,,,0.00,244.000000,,2013-02-16 17:52:00,
2013-02-16 10:21:00,56.0,16.0,-100.00,East,81,15.0,22.0,20,0.00,,,0.00,549.000000,,2013-02-16 18:21:00,
2013-02-16 10:33:00,56.0,16.0,-100.00,East,81,15.0,22.0,20,0.00,,,0.00,549.000000,,2013-02-16 18:33:00,
2013-02-16 10:42:00,56.0,16.0,-100.00,East,81,15.0,22.0,20,0.00,,,0.00,549.000000,,2013-02-16 18:42:00,
2013-02-16 10:51:00,56.0,16.0,-100.00,East,81,15.0,22.0,20,0.00,,,0.00,549.000000,,2013-02-16 18:51:00,
2013-02-16 11:21:00,58.0,16.0,-100.00,East,79,14.0,21.0,19,0.00,,,0.00,724.000000,,2013-02-16 19:21:00,
2013-02-16 11:31:00,58.0,16.0,-100.00,East,79,14.0,21.0,19,0.00,,,0.00,724.000000,,2013-02-16 19:31:00,
2013-02-16 11:42:00,58.0,16.0,-100.00,East,79,14.0,21.0,19,0.00,,,0.00,724.000000,,2013-02-16 19:42:00,
2013-02-16 11:52:00,58.0,16.0,-100.00,East,79,14.0,21.0,19,0.00,,,0.00,724.000000,,2013-02-16 19:52:00,
2013-02-16 12:21:00,59.0,16.0,-100.00,ENE,77,12.0,21.0,18,0.00,,,0.00,721.000000,,2013-02-16 20:21:00,
2013-02-16 12:32:00,59.0,16.0,-100.00,ENE,77,12.0,21.0,18,0.00,,,0.00,721.000000,,2013-02-16 20:32:00,
2013-02-16 12:42:00,59.0,16.0,-100.00,ENE,77,12.0,21.0,18,0.00,,,0.00,721.000000,,2013-02-16 20:42:00,
2013-02-16 12:52:00,59.0,16.0,-100.00,ENE,77,12.0,21.0,18,0.00,,,0.00,721.000000,,2013-02-16 20:52:00,
2013-02-16 13:21:00,60.0,15.0,-100.00,East,81,13.0,20.0,17,0.00,,,0.00,801.000000,,2013-02-16 21:21:00,
2013-02-16 13:31:00,60.0,15.0,-100.00,East,81,13.0,20.0,17,0.00,,,0.00,801.000000,,2013-02-16 21:31:00,
2013-02-16 13:41:00,60.0,15.0,-100.00,East,81,13.0,20.0,17,0.00,,,0.00,801.000000,,2013-02-16 21:41:00,
2013-02-16 13:52:00,60.0,15.0,-100.00,East,81,13.0,20.0,17,0.00,,,0.00,801.000000,,2013-02-16 21:52:00,
2013-02-16 14:21:00,60.0,15.0,-100.00,East,81,10.0,18.0,17,0.00,,,0.00,771.000000,,2013-02-16 22:21:00,
2013-02-16 14:32:00,60.0,15.0,-100.00,East,81,10.0,18.0,17,0.00,,,0.00,771.000000,,2013-02-16 22:32:00,
2013-02-16 14:42:00,60.0,15.0,-100.00,East,81,10.0,18.0,17,0.00,,,0.00,771.000000,,2013-02-16 22:42:00,
2013-02-16 14:51:00,60.0,15.0,-100.00,East,81,10.0,18.0,17,0.00,,,0.00,771.000000,,2013-02-16 22:51:00,
2013-02-16 15:21:00,60.0,14.0,-100.00,East,79,9.0,15.0,16,0.00,,,0.00,602.000000,,2013-02-16 23:21:00,
2013-02-16 15:31:00,60.0,14.0,-100.00,East,79,9.0,15.0,16,0.00,,,0.00,602.000000,,2013-02-16 23:31:00,
2013-02-16 15:42:00,60.0,14.0,-100.00,East,79,9.0,15.0,16,0.00,,,0.00,602.000000,,2013-02-16 23:42:00,
2013-02-16 15:52:00,60.0,14.0,-100.00,East,79,9.0,15.0,16,0.00,,,0.00,602.000000,,2013-02-16 23:52:00,
2013-02-16 16:21:00,60.0,12.0,-100.00,ENE,76,8.0,14.0,15,0.00,,,0.00,473.000000,,2013-02-17 00:21:00,
2013-02-16 16:31:00,60.0,12.0,-100.00,ENE,76,8.0,14.0,15,0.00,,,0.00,473.000000,,2013-02-17 00:31:00,
2013-02-16 16:41:00,60.0,12.0,-100.00,ENE,76,8.0,14.0,15,0.00,,,0.00,473.000000,,2013-02-17 00:41:00,
2013-02-16 16:51:00,60.0,12.0,-100.00,ENE,76,8.0,14.0,15,0.00,,,0.00,473.000000,,2013-02-17 00:51:00,
2013-02-16 17:21:00,57.0,11.0,-100.00,East,101,4.0,13.0,16,0.00,,,0.00,250.000000,,2013-02-17 01:21:00,
2013-02-16 17:31:00,57.0,11.0,-100.00,East,101,4.0,13.0,16,0.00,,,0.00,250.000000,,2013-02-17 01:31:00,
2013-02-16 17:41:00,57.0,11.0,-100.00,East,101,4.0,13.0,16,0.00,,,0.00,250.000000,,2013-02-17 01:41:00,
2013-02-16 17:52:00,57.0,11.0,-100.00,East,101,4.0,13.0,16,0.00,,,0.00,250.000000,,2013-02-17 01:52:00,
2013-02-16 18:21:00,50.0,11.0,-100.00,SSE,166,2.0,7.0,20,0.00,,,0.00,15.000000,,2013-02-17 02:21:00,
2013-02-16 18:31:00,50.0,11.0,-100.00,SSE,166,2.0,7.0,20,0.00,,,0.00,15.000000,,2013-02-17 02:31:00,
2013-02-16 18:41:00,50.0,11.0,-100.00,SSE,166,2.0,7.0,20,0.00,,,0.00,15.000000,,2013-02-17 02:41:00,
2013-02-16 18:52:00,50.0,11.0,-100.00,SSE,166,2.0,7.0,20,0.00,,,0.00,15.000000,,2013-02-17 02:52:00,
2013-02-16 19:11:00,44.0,17.0,-100.00,South,190,1.0,3.0,33,0.00,,,0.00,0.000000,,2013-02-17 03:11:00,
2013-02-16 19:42:00,44.0,17.0,-100.00,South,190,1.0,3.0,33,0.00,,,0.00,0.000000,,2013-02-17 03:42:00,
2013-02-16 19:51:00,44.0,17.0,-100.00,South,190,1.0,3.0,33,0.00,,,0.00,0.000000,,2013-02-17 03:51:00,
2013-02-16 20:21:00,42.0,18.0,-100.00,SW,231,3.0,5.0,38,0.00,,,0.00,0.000000,,2013-02-17 04:21:00,
2013-02-16 21:22:00,47.0,16.0,-100.00,SW,222,2.0,3.0,28,-99.99,,,0.00,0.000000,,2013-02-17 05:22:00,
2013-02-16 21:32:00,47.0,16.0,-100.00,SW,222,2.0,3.0,28,-99.99,,,0.00,0.000000,,2013-02-17 05:32:00,
2013-02-16 21:42:00,47.0,16.0,-100.00,SW,222,2.0,3.0,28,-99.99,,,0.00,0.000000,,2013-02-17 05:42:00,
2013-02-16 21:52:00,47.0,16.0,-100.00,SW,222,2.0,3.0,28,-99.99,,,0.00,0.000000,,2013-02-17 05:52:00,
2013-02-16 22:21:00,42.0,18.0,-100.00,SW,235,4.0,7.0,37,0.00,,,0.00,0.000000,,2013-02-17 06:21:00,
2013-02-16 22:31:00,42.0,18.0,-100.00,SW,235,4.0,7.0,37,0.00,,,0.00,0.000000,,2013-02-17 06:31:00,
2013-02-16 23:21:00,44.0,17.0,-100.00,SW,234,4.0,5.0,34,-99.99,,,-99.99,0.000000,,2013-02-17 07:21:00,
2013-02-16 23:31:00,44.0,17.0,-100.00,SW,234,4.0,5.0,34,-99.99,,,-99.99,0.000000,,2013-02-17 07:31:00,
2013-02-16 23:41:00,44.0,17.0,-100.00,SW,234,4.0,5.0,34,-99.99,,,-99.99,0.000000,,2013-02-17 07:41:00,
2013-02-16 23:51:00,44.0,17.0,-100.00,SW,234,4.0,5.0,34,-99.99,,,-99.99,0.000000,,2013-02-17 07:51:00,